createdAt,value
2023-04-26T00:00:02.066Z,1.72
2023-04-26T00:02:32.611Z,1.68
2023-04-26T00:05:00.005Z,1.62
2023-04-26T00:07:27.475Z,1.60
2023-04-26T00:09:56.804Z,1.52
2023-04-26T00:12:23.948Z,1.43
2023-04-26T00:15:14.367Z,1.39
2023-04-26T00:17:41.538Z,1.34
2023-04-26T00:20:09.429Z,1.30
2023-04-26T00:22:36.571Z,1.26
2023-04-26T00:25:05.978Z,1.20
2023-04-26T00:27:33.142Z,1.14
2023-04-26T00:30:00.331Z,1.05
2023-04-26T00:32:27.536Z,1.04
2023-04-26T00:34:54.685Z,0.98
2023-04-26T00:37:21.919Z,0.92
2023-04-26T00:39:49.086Z,0.89
2023-04-26T00:42:17.636Z,0.88
2023-04-26T00:44:44.862Z,0.87
2023-04-26T00:47:12.399Z,0.87
2023-04-26T00:49:40.243Z,0.86
2023-04-26T00:52:07.950Z,0.85
2023-04-26T00:54:35.216Z,0.84
2023-04-26T00:57:02.693Z,0.80
2023-04-26T00:59:31.242Z,0.73
2023-04-26T01:01:59.218Z,0.69
2023-04-26T01:04:26.671Z,0.67
2023-04-26T01:06:53.964Z,0.62
2023-04-26T01:09:21.616Z,0.61
2023-04-26T01:11:49.063Z,0.58
2023-04-26T01:14:16.254Z,0.51
2023-04-26T01:16:45.404Z,0.47
2023-04-26T01:19:13.535Z,0.45
2023-04-26T01:21:41.092Z,0.38
2023-04-26T01:24:11.162Z,0.31
2023-04-26T01:26:38.815Z,0.31
2023-04-26T01:29:13.578Z,0.29
2023-04-26T01:31:40.813Z,0.25
2023-04-26T01:34:07.993Z,0.24
2023-04-26T01:36:35.195Z,0.23
2023-04-26T01:39:02.803Z,0.17
2023-04-26T01:41:31.491Z,0.10
2023-04-26T01:44:00.549Z,0.10
2023-04-26T01:46:27.787Z,0.07
2023-04-26T01:48:55.155Z,0.05
2023-04-26T01:51:23.429Z,-0.01
2023-04-26T01:53:50.704Z,-0.03
2023-04-26T01:56:18.306Z,-0.03
2023-04-26T01:58:46.837Z,-0.05
2023-04-26T02:01:14.049Z,-0.12
2023-04-26T02:03:41.283Z,-0.20
2023-04-26T02:06:08.522Z,-0.23
2023-04-26T02:08:35.808Z,-0.25
2023-04-26T02:11:03.004Z,-0.29
2023-04-26T02:13:31.267Z,-0.32
2023-04-26T02:15:59.832Z,-0.36
2023-04-26T02:18:27.002Z,-0.40
2023-04-26T02:20:54.202Z,-0.42
2023-04-26T02:23:21.387Z,-0.42
2023-04-26T02:25:48.611Z,-0.43
2023-04-26T02:28:17.392Z,-0.47
2023-04-26T02:30:44.596Z,-0.49
2023-04-26T02:33:13.162Z,-0.51
2023-04-26T02:35:40.334Z,-0.54
2023-04-26T02:38:07.503Z,-0.57
2023-04-26T02:40:34.685Z,-0.61
2023-04-26T02:43:01.963Z,-0.62
2023-04-26T02:45:29.121Z,-0.67
2023-04-26T02:47:56.372Z,-0.71
2023-04-26T02:50:24.956Z,-0.73
2023-04-26T02:52:52.224Z,-0.77
2023-04-26T02:55:20.216Z,-0.79
2023-04-26T02:57:47.570Z,-0.82
2023-04-26T03:00:14.963Z,-0.86
2023-04-26T03:02:42.235Z,-0.88
2023-04-26T03:05:09.649Z,-0.95
2023-04-26T03:07:38.188Z,-0.92
2023-04-26T03:10:06.678Z,-0.95
2023-04-26T03:12:34.555Z,-1.02
2023-04-26T03:15:02.875Z,-1.05
2023-04-26T03:17:30.406Z,-1.05
2023-04-26T03:19:57.677Z,-1.07
2023-04-26T03:22:25.130Z,-1.09
2023-04-26T03:24:53.942Z,-1.09
2023-04-26T03:27:21.437Z,-1.10
2023-04-26T03:29:48.635Z,-1.12
2023-04-26T03:32:15.890Z,-1.15
2023-04-26T03:34:43.341Z,-1.18
2023-04-26T03:37:10.520Z,-1.18
2023-04-26T03:39:38.981Z,-1.19
2023-04-26T03:42:07.724Z,-1.19
2023-04-26T03:44:35.696Z,-1.23
2023-04-26T03:47:02.845Z,-1.24
2023-04-26T03:49:30.085Z,-1.24
2023-04-26T03:51:57.303Z,-1.27
2023-04-26T03:54:24.679Z,-1.26
2023-04-26T03:56:51.989Z,-1.29
2023-04-26T03:59:21.532Z,-1.32
2023-04-26T04:01:48.802Z,-1.37
2023-04-26T04:04:16.162Z,-1.39
2023-04-26T04:06:44.659Z,-1.40
2023-04-26T04:09:12.057Z,-1.42
2023-04-26T04:11:39.255Z,-1.41
2023-04-26T04:14:06.497Z,-1.38
2023-04-26T04:16:35.167Z,-1.38
2023-04-26T04:19:02.441Z,-1.30
2023-04-26T04:21:29.653Z,-1.29
2023-04-26T04:23:57.833Z,-1.27
2023-04-26T04:26:25.724Z,-1.26
2023-04-26T04:28:53.807Z,-1.24
2023-04-26T04:31:21.582Z,-1.24
2023-04-26T04:33:50.244Z,-1.21
2023-04-26T04:36:17.702Z,-1.21
2023-04-26T04:38:45.948Z,-1.20
2023-04-26T04:41:17.536Z,-1.14
2023-04-26T04:43:44.617Z,-0.96
2023-04-26T04:46:12.873Z,-0.79
2023-04-26T04:48:40.146Z,-0.63
2023-04-26T04:51:08.802Z,-0.47
2023-04-26T04:53:36.946Z,-0.30
2023-04-26T04:56:05.248Z,-0.17
2023-04-26T04:58:32.618Z,-0.06
2023-04-26T05:00:59.793Z,0.10
2023-04-26T05:03:29.713Z,0.23
2023-04-26T05:05:56.991Z,0.33
2023-04-26T05:08:26.615Z,0.48
2023-04-26T05:10:54.981Z,0.57
2023-04-26T05:13:22.476Z,0.71
2023-04-26T05:15:49.599Z,0.92
2023-04-26T05:18:17.021Z,1.10
2023-04-26T05:20:44.264Z,1.19
2023-04-26T05:23:11.526Z,1.47
2023-04-26T05:25:40.111Z,1.77
2023-04-26T05:28:27.207Z,1.65
2023-04-26T05:31:17.883Z,1.76
2023-04-26T05:34:03.720Z,1.86
2023-04-26T05:36:35.622Z,1.81
2023-04-26T05:39:02.842Z,2.12
2023-04-26T05:41:31.416Z,2.31
2023-04-26T05:43:58.875Z,2.48
2023-04-26T05:46:26.544Z,2.66
2023-04-26T05:48:53.789Z,2.45
2023-04-26T05:51:21.312Z,2.85
2023-04-26T05:53:48.557Z,3.03
2023-04-26T05:56:15.819Z,3.31
2023-04-26T05:58:44.430Z,3.57
2023-04-26T06:01:11.582Z,3.58
2023-04-26T06:03:39.495Z,3.34
2023-04-26T06:06:07.212Z,3.35
2023-04-26T06:08:35.269Z,3.69
2023-04-26T06:11:02.484Z,3.94
2023-04-26T06:13:29.695Z,4.19
2023-04-26T06:15:59.610Z,4.33
2023-04-26T06:18:26.851Z,4.63
2023-04-26T06:20:54.088Z,4.55
2023-04-26T06:23:21.322Z,4.79
2023-04-26T06:25:48.447Z,4.73
2023-04-26T06:28:15.754Z,4.58
2023-04-26T06:30:43.389Z,4.74
2023-04-26T06:33:12.010Z,4.87
2023-04-26T06:35:41.222Z,4.99
2023-04-26T06:38:09.480Z,5.14
2023-04-26T06:40:36.984Z,5.26
2023-04-26T06:43:04.262Z,5.27
2023-04-26T06:45:47.097Z,5.47
2023-04-26T06:48:15.643Z,5.57
2023-04-26T06:50:42.813Z,5.85
2023-04-26T06:53:09.964Z,6.37
2023-04-26T06:55:37.146Z,6.66
2023-04-26T06:58:04.278Z,6.96
2023-04-26T07:00:31.592Z,7.27
2023-04-26T07:02:59.012Z,7.57
2023-04-26T07:05:27.714Z,7.89
2023-04-26T07:07:54.935Z,8.05
2023-04-26T07:10:22.380Z,8.30
2023-04-26T07:12:49.556Z,8.50
2023-04-26T07:15:16.731Z,8.65
2023-04-26T07:17:43.927Z,8.86
2023-04-26T07:20:11.843Z,8.68
2023-04-26T07:22:40.375Z,9.17
2023-04-26T07:25:08.183Z,9.19
2023-04-26T07:27:35.317Z,9.37
2023-04-26T07:30:02.620Z,9.38
2023-04-26T07:32:29.850Z,9.36
2023-04-26T07:34:57.195Z,9.72
2023-04-26T07:37:24.368Z,10.18
2023-04-26T07:39:52.867Z,10.39
2023-04-26T07:42:20.040Z,10.65
2023-04-26T07:44:48.002Z,10.61
2023-04-26T07:47:15.137Z,10.65
2023-04-26T07:49:42.335Z,10.83
2023-04-26T07:52:09.673Z,11.07
2023-04-26T07:54:36.833Z,10.87
2023-04-26T07:57:05.378Z,10.72
2023-04-26T07:59:32.544Z,10.64
2023-04-26T08:01:59.732Z,10.97
2023-04-26T08:04:33.873Z,10.80
2023-04-26T08:07:01.548Z,10.37
2023-04-26T08:09:28.875Z,10.41
2023-04-26T08:11:56.410Z,10.24
2023-04-26T08:14:25.005Z,10.32
2023-04-26T08:16:52.245Z,10.30
2023-04-26T08:19:19.458Z,10.02
2023-04-26T08:21:46.604Z,9.54
2023-04-26T08:24:13.757Z,9.39
2023-04-26T08:26:40.945Z,10.09
2023-04-26T08:29:08.107Z,10.66
2023-04-26T08:31:36.666Z,10.61
2023-04-26T08:34:03.877Z,9.91
2023-04-26T08:36:31.041Z,9.40
2023-04-26T08:38:58.194Z,9.02
2023-04-26T08:41:26.065Z,8.61
2023-04-26T08:43:55.122Z,8.66
2023-04-26T08:46:24.554Z,8.83
2023-04-26T08:49:05.696Z,9.04
2023-04-26T08:51:34.653Z,9.83
2023-04-26T08:54:05.070Z,10.46
2023-04-26T08:56:33.238Z,10.16
2023-04-26T08:59:00.538Z,9.76
2023-04-26T09:01:29.929Z,9.26
2023-04-26T09:04:00.316Z,8.83
2023-04-26T09:06:27.988Z,9.19
2023-04-26T09:08:56.024Z,9.76
2023-04-26T09:11:23.197Z,9.45
2023-04-26T09:13:50.572Z,10.04
2023-04-26T09:16:17.893Z,9.47
2023-04-26T09:18:50.438Z,9.74
2023-04-26T09:21:19.388Z,9.67
2023-04-26T09:23:57.615Z,9.40
2023-04-26T09:26:24.830Z,9.51
2023-04-26T09:29:11.271Z,9.55
2023-04-26T09:31:40.168Z,9.89
2023-04-26T09:34:10.527Z,10.20
2023-04-26T09:36:54.748Z,10.58
2023-04-26T09:39:30.987Z,11.00
2023-04-26T09:41:58.417Z,10.37
2023-04-26T09:44:26.088Z,11.11
2023-04-26T09:47:01.154Z,10.49
2023-04-26T09:49:28.970Z,10.62
2023-04-26T09:52:05.247Z,10.75
2023-04-26T09:54:40.089Z,10.42
2023-04-26T09:57:07.294Z,9.45
2023-04-26T09:59:44.456Z,9.51
2023-04-26T10:02:16.640Z,9.62
2023-04-26T10:04:45.210Z,10.02
2023-04-26T10:07:14.705Z,10.06
2023-04-26T10:09:42.853Z,9.98
2023-04-26T10:12:11.382Z,10.13
2023-04-26T10:14:38.696Z,10.40
2023-04-26T10:17:06.247Z,11.04
2023-04-26T10:19:34.725Z,10.49
2023-04-26T10:22:05.922Z,10.64
2023-04-26T10:24:36.331Z,10.86
2023-04-26T10:27:03.872Z,10.41
2023-04-26T10:30:07.078Z,10.09
2023-04-26T10:33:12.084Z,10.04
2023-04-26T10:36:00.213Z,10.09
2023-04-26T10:38:27.422Z,10.54
2023-04-26T10:40:56.304Z,10.84
2023-04-26T10:43:28.125Z,11.08
2023-04-26T10:45:55.251Z,11.87
2023-04-26T10:48:28.466Z,12.19
2023-04-26T10:51:08.022Z,12.59
2023-04-26T10:54:00.411Z,13.11
2023-04-26T10:56:53.854Z,12.86
2023-04-26T10:59:39.865Z,12.93
2023-04-26T11:02:10.401Z,12.93
2023-04-26T11:04:51.055Z,12.92
2023-04-26T11:07:36.509Z,12.61
2023-04-26T11:10:07.832Z,12.66
2023-04-26T11:12:36.338Z,11.93
2023-04-26T11:15:04.001Z,11.70
2023-04-26T11:17:37.064Z,11.75
2023-04-26T11:20:08.844Z,11.15
2023-04-26T11:22:39.372Z,11.29
2023-04-26T11:25:07.226Z,11.43
2023-04-26T11:27:35.731Z,11.25
2023-04-26T11:30:03.607Z,11.22
2023-04-26T11:32:30.822Z,11.51
2023-04-26T11:35:00.911Z,12.07
2023-04-26T11:37:28.124Z,12.55
2023-04-26T11:39:57.174Z,13.10
2023-04-26T11:42:25.608Z,11.51
2023-04-26T11:44:56.799Z,11.93
2023-04-26T11:47:24.645Z,12.36
2023-04-26T11:49:52.037Z,12.56
2023-04-26T11:52:19.280Z,12.06
2023-04-26T11:54:46.422Z,11.24
2023-04-26T11:57:16.700Z,11.65
2023-04-26T11:59:45.515Z,11.85
2023-04-26T12:02:14.306Z,12.59
2023-04-26T12:04:41.917Z,12.17
2023-04-26T12:07:09.508Z,12.21
2023-04-26T12:09:41.003Z,12.30
2023-04-26T12:12:08.221Z,12.80
2023-04-26T12:14:36.860Z,12.96
2023-04-26T12:17:05.305Z,13.00
2023-04-26T12:19:34.719Z,13.07
2023-04-26T12:22:01.945Z,13.25
2023-04-26T12:24:31.057Z,13.30
2023-04-26T12:27:00.197Z,13.53
2023-04-26T12:29:28.525Z,12.66
2023-04-26T12:31:55.840Z,11.74
2023-04-26T12:34:24.085Z,12.33
2023-04-26T12:36:52.822Z,12.51
2023-04-26T12:39:19.946Z,12.17
2023-04-26T12:41:47.128Z,12.56
2023-04-26T12:44:14.318Z,12.14
2023-04-26T12:46:41.740Z,11.85
2023-04-26T12:49:08.990Z,12.60
2023-04-26T12:51:36.134Z,12.31
2023-04-26T12:54:04.804Z,13.14
2023-04-26T12:56:32.004Z,12.66
2023-04-26T12:58:59.209Z,12.81
2023-04-26T13:01:26.436Z,13.10
2023-04-26T13:03:53.793Z,13.89
2023-04-26T13:06:21.179Z,13.53
2023-04-26T13:08:48.367Z,12.55
2023-04-26T13:11:16.868Z,12.43
2023-04-26T13:13:44.876Z,11.94
2023-04-26T13:16:12.958Z,12.19
2023-04-26T13:18:40.702Z,12.82
2023-04-26T13:21:07.987Z,13.50
2023-04-26T13:23:35.156Z,13.68
2023-04-26T13:26:02.342Z,14.20
2023-04-26T13:28:30.886Z,14.28
2023-04-26T13:30:58.137Z,14.23
2023-04-26T13:33:25.348Z,14.51
2023-04-26T13:35:52.452Z,13.59
2023-04-26T13:38:19.638Z,14.14
2023-04-26T13:40:46.895Z,13.97
2023-04-26T13:43:14.089Z,13.26
2023-04-26T13:45:43.221Z,13.48
2023-04-26T13:48:10.364Z,12.73
2023-04-26T13:50:37.570Z,13.10
2023-04-26T13:53:04.725Z,13.00
2023-04-26T13:55:31.939Z,13.50
2023-04-26T13:57:59.230Z,14.03
2023-04-26T14:00:26.597Z,14.35
2023-04-26T14:02:55.560Z,14.42
2023-04-26T14:05:22.969Z,13.51
2023-04-26T14:07:50.229Z,13.37
2023-04-26T14:10:17.492Z,12.95
2023-04-26T14:12:44.803Z,13.03
2023-04-26T14:15:12.313Z,12.44
2023-04-26T14:17:39.513Z,12.28
2023-04-26T14:20:09.554Z,11.93
2023-04-26T14:22:36.750Z,12.41
2023-04-26T14:25:04.554Z,12.68
2023-04-26T14:27:31.746Z,12.47
2023-04-26T14:29:58.887Z,12.50
2023-04-26T14:32:26.127Z,12.44
2023-04-26T14:34:53.373Z,12.66
2023-04-26T14:37:21.842Z,12.55
2023-04-26T14:39:49.052Z,12.55
2023-04-26T14:42:16.210Z,13.20
2023-04-26T14:44:43.379Z,12.13
2023-04-26T14:47:10.525Z,11.87
2023-04-26T14:49:37.682Z,12.27
2023-04-26T14:52:05.203Z,12.72
2023-04-26T14:54:38.577Z,12.61
2023-04-26T14:57:05.736Z,12.54
2023-04-26T14:59:33.259Z,12.35
2023-04-26T15:02:00.735Z,12.52
2023-04-26T15:04:28.316Z,12.81
2023-04-26T15:06:55.747Z,12.63
2023-04-26T15:09:22.905Z,12.87
2023-04-26T15:11:51.421Z,12.73
2023-04-26T15:14:18.596Z,13.10
2023-04-26T15:16:45.802Z,12.77
2023-04-26T15:19:14.177Z,12.74
2023-04-26T15:21:41.354Z,12.44
2023-04-26T15:24:08.899Z,12.70
2023-04-26T15:26:36.103Z,13.08
2023-04-26T15:29:04.619Z,13.12
2023-04-26T15:31:31.829Z,13.78
2023-04-26T15:33:59.011Z,14.55
2023-04-26T15:36:26.243Z,15.03
2023-04-26T15:38:53.448Z,15.02
2023-04-26T15:41:20.597Z,15.43
2023-04-26T15:43:47.732Z,15.94
2023-04-26T15:46:16.270Z,15.58
2023-04-26T15:48:43.435Z,15.34
2023-04-26T15:51:10.650Z,14.67
2023-04-26T15:53:43.175Z,14.20
2023-04-26T15:56:14.460Z,13.85
2023-04-26T15:58:42.795Z,14.07
2023-04-26T16:01:10.091Z,13.44
2023-04-26T16:03:38.883Z,12.72
2023-04-26T16:06:06.655Z,12.51
2023-04-26T16:11:06.249Z,11.89
2023-04-26T16:13:33.406Z,11.24
2023-04-26T16:16:00.713Z,11.29
2023-04-26T16:18:27.996Z,11.05
2023-04-26T16:21:04.571Z,11.04
2023-04-26T16:23:31.831Z,11.08
2023-04-26T16:25:58.986Z,10.99
2023-04-26T16:28:26.218Z,11.00
2023-04-26T16:30:53.423Z,10.94
2023-04-26T16:33:22.784Z,10.78
2023-04-26T16:35:50.784Z,10.60
2023-04-26T16:38:19.536Z,10.55
2023-04-26T16:40:53.473Z,10.56
2023-04-26T16:43:20.753Z,10.64
2023-04-26T16:45:48.065Z,10.72
2023-04-26T16:48:15.239Z,10.76
2023-04-26T16:50:42.377Z,10.73
2023-04-26T16:53:09.530Z,10.75
2023-04-26T16:55:38.060Z,10.74
2023-04-26T16:58:05.226Z,10.97
2023-04-26T17:00:32.387Z,10.94
2023-04-26T17:02:59.697Z,11.11
2023-04-26T17:05:26.952Z,11.00
2023-04-26T17:07:54.149Z,10.73
2023-04-26T17:10:21.587Z,10.50
2023-04-26T17:12:50.061Z,10.63
2023-04-26T17:15:17.469Z,10.56
2023-04-26T17:17:44.747Z,10.56
2023-04-26T17:20:12.335Z,10.71
2023-04-26T17:22:39.494Z,10.74
2023-04-26T17:25:07.595Z,10.60
2023-04-26T17:27:34.792Z,10.64
2023-04-26T17:30:03.944Z,10.52
2023-04-26T17:32:31.133Z,10.62
2023-04-26T17:34:58.339Z,10.62
2023-04-26T17:37:25.606Z,10.47
2023-04-26T17:39:52.832Z,10.39
2023-04-26T17:42:20.099Z,10.23
2023-04-26T17:44:47.222Z,9.98
2023-04-26T17:47:15.741Z,9.79
2023-04-26T17:49:42.950Z,9.61
2023-04-26T17:52:10.119Z,9.48
2023-04-26T17:54:37.306Z,9.24
2023-04-26T17:57:04.436Z,9.12
2023-04-26T17:59:31.745Z,8.93
2023-04-26T18:01:59.045Z,8.71
2023-04-26T18:04:27.968Z,8.58
2023-04-26T18:06:55.358Z,8.35
2023-04-26T18:09:22.547Z,8.33
2023-04-26T18:11:49.726Z,8.18
2023-04-26T18:14:17.009Z,8.17
2023-04-26T18:16:44.271Z,8.18
2023-04-26T18:19:11.497Z,8.24
2023-04-26T18:21:40.043Z,8.25
2023-04-26T18:24:07.773Z,8.12
2023-04-26T18:26:34.938Z,8.02
2023-04-26T18:29:02.054Z,7.97
2023-04-26T18:31:31.141Z,7.90
2023-04-26T18:33:59.670Z,7.89
2023-04-26T18:36:26.833Z,7.79
2023-04-26T18:38:55.479Z,7.68
2023-04-26T18:41:22.652Z,7.54
2023-04-26T18:43:49.858Z,7.46
2023-04-26T18:46:17.089Z,7.38
2023-04-26T18:48:44.297Z,7.29
2023-04-26T18:51:11.537Z,7.30
2023-04-26T18:53:38.661Z,7.29
2023-04-26T18:56:07.358Z,7.25
2023-04-26T18:58:34.553Z,7.29
2023-04-26T19:01:01.729Z,7.28
2023-04-26T19:03:29.109Z,7.28
2023-04-26T19:05:56.492Z,7.27
2023-04-26T19:08:25.029Z,7.22
2023-04-26T19:10:52.284Z,7.15
2023-04-26T19:13:20.994Z,7.09
2023-04-26T19:15:48.415Z,6.99
2023-04-26T19:18:16.613Z,6.92
2023-04-26T19:20:43.797Z,6.88
2023-04-26T19:23:10.923Z,6.83
2023-04-26T19:25:38.244Z,6.82
2023-04-26T19:28:05.689Z,6.80
2023-04-26T19:30:37.285Z,6.79
2023-04-26T19:33:04.587Z,6.78
2023-04-26T19:35:31.798Z,6.78
2023-04-26T19:37:58.940Z,6.71
2023-04-26T19:40:26.155Z,6.68
2023-04-26T19:42:53.809Z,6.65
2023-04-26T19:45:21.546Z,6.57
2023-04-26T19:47:50.533Z,6.52
2023-04-26T19:50:18.102Z,6.43
2023-04-26T19:52:45.790Z,6.27
2023-04-26T19:55:13.055Z,6.31
2023-04-26T19:57:40.261Z,6.28
2023-04-26T20:00:08.691Z,6.34
2023-04-26T20:02:35.975Z,6.33
2023-04-26T20:05:05.319Z,6.32
2023-04-26T20:07:32.453Z,6.29
2023-04-26T20:09:59.608Z,6.34
2023-04-26T20:12:26.758Z,6.36
2023-04-26T20:14:53.919Z,6.36
2023-04-26T20:17:21.135Z,6.40
2023-04-26T20:19:48.266Z,6.42
2023-04-26T20:22:16.791Z,6.46
2023-04-26T20:24:43.984Z,6.46
2023-04-26T20:27:11.142Z,6.41
2023-04-26T20:29:38.281Z,6.40
2023-04-26T20:32:05.585Z,6.36
2023-04-26T20:34:32.749Z,6.36
2023-04-26T20:36:59.907Z,6.30
2023-04-26T20:39:28.420Z,6.32
2023-04-26T20:41:55.624Z,6.27
2023-04-26T20:44:22.770Z,6.22
2023-04-26T20:46:49.942Z,6.22
2023-04-26T20:49:17.644Z,6.23
2023-04-26T20:51:44.802Z,6.16
2023-04-26T20:54:11.995Z,6.15
2023-04-26T20:56:40.497Z,6.09
2023-04-26T20:59:08.046Z,5.97
2023-04-26T21:01:35.475Z,5.91
2023-04-26T21:04:02.966Z,5.89
2023-04-26T21:06:30.245Z,5.85
2023-04-26T21:08:57.365Z,5.82
2023-04-26T21:11:24.476Z,5.85
2023-04-26T21:13:52.946Z,5.86
2023-04-26T21:16:20.159Z,5.90
2023-04-26T21:18:47.331Z,5.91
2023-04-26T21:21:14.487Z,5.93
2023-04-26T21:23:41.648Z,5.93
2023-04-26T21:26:08.800Z,5.91
2023-04-26T21:28:35.929Z,5.86
2023-04-26T21:31:06.135Z,5.82
2023-04-26T21:33:33.961Z,5.82
2023-04-26T21:36:01.119Z,5.84
2023-04-26T21:38:28.273Z,5.83
2023-04-26T21:40:55.412Z,5.84
2023-04-26T21:43:22.607Z,5.81
2023-04-26T21:45:49.995Z,5.79
2023-04-26T21:48:18.548Z,5.80
2023-04-26T21:50:48.262Z,5.68
2023-04-26T21:53:15.652Z,5.60
2023-04-26T21:55:42.832Z,5.62
2023-04-26T21:58:10.036Z,5.58
2023-04-26T22:00:37.271Z,5.65
2023-04-26T22:03:04.834Z,5.66
2023-04-26T22:05:33.531Z,5.70
2023-04-26T22:08:00.655Z,5.65
2023-04-26T22:10:27.798Z,5.68
2023-04-26T22:12:54.958Z,5.63
2023-04-26T22:15:23.135Z,5.62
2023-04-26T22:17:50.411Z,5.60
2023-04-26T22:20:17.704Z,5.63
2023-04-26T22:22:46.226Z,5.63
2023-04-26T22:25:13.427Z,5.60
2023-04-26T22:27:40.584Z,5.60
2023-04-26T22:30:22.874Z,5.54
2023-04-26T22:32:52.013Z,5.52
2023-04-26T22:35:19.453Z,5.52
2023-04-26T22:37:48.255Z,5.55
2023-04-26T22:40:15.955Z,5.48
2023-04-26T22:42:43.495Z,5.46
2023-04-26T22:45:11.800Z,5.40
2023-04-26T22:47:39.650Z,5.41
2023-04-26T22:50:07.865Z,5.44
2023-04-26T22:52:35.413Z,5.44
2023-04-26T22:55:04.394Z,5.39
2023-04-26T22:57:31.529Z,5.34
2023-04-26T22:59:58.677Z,5.33
2023-04-26T23:02:25.923Z,5.29
2023-04-26T23:04:53.351Z,5.28
2023-04-26T23:07:20.704Z,5.27
2023-04-26T23:09:47.929Z,5.29
2023-04-26T23:12:18.651Z,5.25
2023-04-26T23:14:45.872Z,5.26
2023-04-26T23:17:13.287Z,5.22
2023-04-26T23:19:40.457Z,5.24
2023-04-26T23:22:07.654Z,5.18
2023-04-26T23:24:34.821Z,5.15
2023-04-26T23:27:01.997Z,5.14
2023-04-26T23:29:30.548Z,5.13
2023-04-26T23:31:57.843Z,5.13
2023-04-26T23:34:25.239Z,5.12
2023-04-26T23:36:52.510Z,5.10
2023-04-26T23:39:19.644Z,5.14
2023-04-26T23:41:46.826Z,5.13
2023-04-26T23:44:13.979Z,5.13
2023-04-26T23:46:42.458Z,5.14
2023-04-26T23:49:09.676Z,5.11
2023-04-26T23:51:36.962Z,5.12
2023-04-26T23:54:04.134Z,5.12
2023-04-26T23:56:31.321Z,5.10
2023-04-26T23:58:58.467Z,5.09
